Terminal Aerodrome Forecast
Issued by NWS

Home | Current Version | Previous Version | Text Only | Print | Product List | Glossary On
Versions: 1 2 3 4 5 6 7 8 9 10 11 12 13 14
000
FTUS44 KLIX 291721
TAFMSY
TAF
KMSY 291721Z 2918/3018 14010KT P6SM VCTS SCT035CB BKN250
     FM292300 16006KT P6SM VCTS SCT030CB BKN150
     FM300200 16005KT P6SM SCT250
     FM301500 11004KT P6SM SCT020 BKN100=

USA.gov is the U.S. government's official web portal to all federal, state and local government web resources and services.